Terminal Aerodrome Forecast
Issued by NWS

Home | Current Version | Previous Version | Text Only | Print | Product List | Glossary On
Versions: 1 2 3 4 5 6 7 8 9 10 11 12
000
FTUS42 KMLB 041731
TAFSUA
TAF
KSUA 041731Z 0418/0518 12012G18KT P6SM SCT035
     FM050000 13007KT P6SM BKN035
     FM050800 16003KT P6SM SCT010
      TEMPO 0509/0513 BKN010
     FM051300 15010KT P6SM SCT010 BKN025=

USA.gov is the U.S. government's official web portal to all federal, state and local government web resources and services.